Pagrindinis puslapis
METAR-TAF:

METAR-TAF

Oro uostai :

A.L. Mangham Jr. Regional Airport

Nacogdoches, Teksasas, Jungtinės Amerikos Valstijos

platuma: 31-35N, ilguma: 094-43W, Aukštis: 108 m

Dabartinis oras

Ataskaita buvo paskelbta 16 minutes, ne 07:15 UTC
Ramus vėjas
Temperatūra 16°C
Drėgmė 100%
Slėgis 1012 hPa
Matomumas: 16.1 km
Mažai debesys ne aukštis 200 ft

METAR: KOCH 270715Z AUTO 00000KT 10SM FEW002 16/16 A2989 RMK AO2

Laikas: 02:31 (07:31 UTC)


TAF: trūkstamas

Orai ataskaitas ir orų prognozės (METAR, TAF).

turimą stotys yra geltonos ir raudonos taškus žemėlapyje.

Perkelti pele per norėdami pamatyti stoties vardą.

Tada spustelėkite, norėdami matyti oro stebėjimo ir prognozės.

Norėdami pakeisti žemėlapį: spustelėkite ant žalios mygtukų su juodo kryžiaus žemyn,; žalią mygtuką su brūkšneliu, jei norite nutolinti; arba žalių rodyklių gretimoms žemėlapius.


METAR-TAF: